Time;durP1;ratioP1;P1;durP2;ratioP2;P2;SDS_P1;SDS_P2;PMS_P1;PMS_P2;Temp;Humidity;BMP_temperature;BMP_pressure;BME280_temperature;BME280_humidity;BME280_pressure;Samples;Min_cycle;Max_cycle;Signal;HPM_P1;HPM_P2
2021/10/21 00:00:23;;;;;;;4.50;3.07;;;;;;;3.50;81.34;95986.82;1777413;79;21054;-71
2021/10/21 00:02:51;;;;;;;5.50;3.00;;;;;;;3.51;82.04;95985.11;1783452;79;21022;-71
2021/10/21 00:05:18;;;;;;;9.60;2.90;;;;;;;3.51;81.67;95972.07;1795048;79;21046;-71
2021/10/21 00:07:45;;;;;;;4.10;3.10;;;;;;;3.51;81.54;95974.24;1790702;79;21082;-71
2021/10/21 00:10:13;;;;;;;5.00;3.23;;;;;;;3.57;81.91;95964.31;1801800;79;21118;-71
2021/10/21 00:12:40;;;;;;;5.53;2.13;;;;;;;3.55;81.54;95963.41;1802642;79;21133;-71
2021/10/21 00:15:09;;;;;;;7.17;4.00;;;;;;;3.50;81.34;95961.16;1784733;79;21560;-71
2021/10/21 00:17:36;;;;;;;4.87;3.57;;;;;;;3.47;81.75;95960.69;1788062;79;21011;-71
2021/10/21 00:20:07;;;;;;;3.50;2.53;;;;;;;3.49;82.11;95955.08;1794471;79;21846;-70
2021/10/21 00:22:34;;;;;;;4.37;2.80;;;;;;;3.38;81.45;95948.84;1798957;79;20987;-71
2021/10/21 00:25:00;;;;;;;4.20;2.87;;;;;;;3.27;81.90;95946.05;1803714;79;21028;-71
2021/10/21 00:27:27;;;;;;;3.93;2.70;;;;;;;3.27;81.87;95944.74;1792990;79;21085;-71
2021/10/21 00:29:54;;;;;;;4.87;2.57;;;;;;;3.30;81.79;95937.39;1806383;79;21027;-70
2021/10/21 00:32:21;;;;;;;3.50;2.60;;;;;;;3.28;81.96;95941.30;1794015;79;21066;-71
2021/10/21 00:34:47;;;;;;;5.40;2.87;;;;;;;3.22;82.20;95932.94;1777566;79;21098;-71
2021/10/21 00:37:14;;;;;;;4.30;2.97;;;;;;;3.14;82.13;95930.64;1777822;79;21026;-71
2021/10/21 00:39:41;;;;;;;4.37;2.57;;;;;;;3.11;82.60;95926.70;1789249;79;21124;-72
2021/10/21 00:42:08;;;;;;;4.30;2.80;;;;;;;3.13;82.62;95924.13;1799573;79;21002;-71
2021/10/21 00:44:34;;;;;;;4.33;2.80;;;;;;;3.14;82.37;95924.56;1798023;79;21638;-72
2021/10/21 00:47:01;;;;;;;3.93;2.43;;;;;;;3.15;82.25;95914.56;1777793;79;21048;-71
2021/10/21 00:49:28;;;;;;;3.97;2.53;;;;;;;3.15;81.79;95902.84;1784171;79;21485;-71
2021/10/21 00:51:55;;;;;;;6.10;3.23;;;;;;;3.17;82.18;95907.22;1805755;79;21528;-70
2021/10/21 00:54:21;;;;;;;5.17;3.73;;;;;;;3.12;82.22;95898.88;1785611;79;21053;-71
2021/10/21 00:56:51;;;;;;;7.67;4.97;;;;;;;3.14;82.61;95903.27;1797727;79;21549;-71
2021/10/21 00:59:19;;;;;;;4.20;2.87;;;;;;;3.10;83.21;95891.06;1803775;79;21544;-71
2021/10/21 01:01:45;;;;;;;6.00;4.03;;;;;;;3.10;82.95;95887.55;1783791;79;21006;-71
2021/10/21 01:04:12;;;;;;;4.50;3.30;;;;;;;3.11;82.64;95888.89;1777927;79;21487;-71
2021/10/21 01:06:46;;;;;;;5.53;3.73;;;;;;;3.19;83.00;95883.35;1783433;79;21116;-71
2021/10/21 01:09:10;;;;;;;4.90;3.33;;;;;;;3.25;82.71;95888.67;1776866;79;21033;-71
2021/10/21 01:11:41;;;;;;;7.77;5.00;;;;;;;3.16;82.27;95879.84;1800634;79;21583;-71
2021/10/21 01:14:08;;;;;;;4.30;2.87;;;;;;;3.08;82.11;95880.16;1804446;79;20993;-70
2021/10/21 01:16:40;;;;;;;5.30;3.17;;;;;;;3.06;82.38;95872.73;1790904;79;21033;-71
2021/10/21 01:19:23;;;;;;;6.37;3.40;;;;;;;3.06;83.12;95870.13;1804881;79;21147;-71
2021/10/21 01:21:54;;;;;;;4.20;3.20;;;;;;;3.12;82.75;95875.42;1786809;79;21026;-71
2021/10/21 01:24:22;;;;;;;6.13;3.10;;;;;;;3.22;82.84;95866.88;1783422;79;21321;-71
2021/10/21 01:26:52;;;;;;;4.83;3.30;;;;;;;3.26;82.60;95862.16;1797870;79;21479;-71
2021/10/21 01:29:22;;;;;;;6.43;2.80;;;;;;;3.19;82.30;95859.89;1781590;79;21025;-71
2021/10/21 01:31:50;;;;;;;5.97;2.97;;;;;;;3.20;81.74;95864.67;1777924;79;21129;-71
2021/10/21 01:34:17;;;;;;;5.07;2.87;;;;;;;3.14;82.10;95861.98;1780911;79;21046;-71
2021/10/21 01:36:51;;;;;;;5.17;3.30;;;;;;;3.10;82.63;95853.26;1788727;79;21571;-71
2021/10/21 01:39:18;;;;;;;4.27;3.30;;;;;;;3.14;82.73;95855.47;1788560;79;21057;-71
2021/10/21 01:41:45;;;;;;;3.40;2.60;;;;;;;3.27;82.96;95852.16;1799092;79;21113;-71
2021/10/21 01:44:12;;;;;;;3.47;2.90;;;;;;;3.28;82.35;95851.33;1808348;79;21564;-71
2021/10/21 01:46:39;;;;;;;7.33;3.27;;;;;;;3.19;82.00;95848.59;1808378;79;21110;-71
2021/10/21 01:49:06;;;;;;;6.03;3.50;;;;;;;3.17;82.42;95852.46;1803239;79;21009;-70
2021/10/21 01:51:33;;;;;;;4.37;2.90;;;;;;;3.16;82.36;95854.63;1790942;79;21010;-71
2021/10/21 01:54:00;;;;;;;7.90;3.37;;;;;;;3.12;82.12;95849.34;1808531;79;21019;-71
2021/10/21 01:56:28;;;;;;;3.43;2.47;;;;;;;3.08;82.08;95848.88;1798457;79;21038;-71
2021/10/21 01:58:55;;;;;;;4.23;2.60;;;;;;;3.09;82.51;95855.39;1789130;79;21018;-71
2021/10/21 02:01:21;;;;;;;4.73;2.83;;;;;;;3.00;82.50;95843.12;1792558;79;21042;-71
2021/10/21 02:03:48;;;;;;;9.77;2.87;;;;;;;2.99;82.61;95854.81;1783399;79;21104;-71
2021/10/21 02:06:15;;;;;;;3.70;2.50;;;;;;;2.98;82.38;95837.44;1808640;79;21125;-71
2021/10/21 02:08:41;;;;;;;3.80;2.40;;;;;;;2.96;82.75;95845.66;1777838;79;21064;-71
2021/10/21 02:11:08;;;;;;;5.23;3.00;;;;;;;2.92;82.21;95839.94;1805493;79;21046;-71
2021/10/21 02:13:34;;;;;;;2.60;2.07;;;;;;;2.91;82.65;95832.55;1808402;79;21008;-71
2021/10/21 02:16:01;;;;;;;2.93;1.97;;;;;;;2.89;82.74;95842.50;1796982;79;21077;-71
2021/10/21 02:18:28;;;;;;;3.73;2.50;;;;;;;2.80;82.89;95835.00;1798835;79;21010;-70
2021/10/21 02:20:55;;;;;;;3.87;2.53;;;;;;;2.84;82.80;95825.92;1802658;79;21580;-70
2021/10/21 02:23:21;;;;;;;5.30;2.97;;;;;;;2.78;82.83;95831.48;1790573;79;21066;-70
2021/10/21 02:25:48;;;;;;;5.70;3.27;;;;;;;2.79;82.93;95833.66;1804370;79;21054;-71
2021/10/21 02:28:15;;;;;;;11.57;5.10;;;;;;;2.80;83.73;95833.70;1788033;79;21106;-71
2021/10/21 02:30:42;;;;;;;5.37;3.40;;;;;;;2.77;83.19;95826.24;1788118;79;20983;-71
2021/10/21 02:33:08;;;;;;;12.53;4.33;;;;;;;2.79;82.90;95820.63;1793090;79;21073;-71
2021/10/21 02:35:35;;;;;;;9.73;3.80;;;;;;;2.87;83.06;95816.84;1797096;79;20998;-71
2021/10/21 02:38:03;;;;;;;4.03;2.60;;;;;;;2.90;83.31;95818.17;1778346;79;21515;-71
2021/10/21 02:40:29;;;;;;;3.90;2.33;;;;;;;2.90;82.97;95822.09;1788238;79;21133;-71
2021/10/21 02:42:56;;;;;;;7.37;3.17;;;;;;;2.90;83.28;95824.30;1783811;79;21018;-70
2021/10/21 02:45:24;;;;;;;4.37;2.60;;;;;;;2.91;83.17;95820.81;1797910;79;21068;-71
2021/10/21 02:47:50;;;;;;;4.50;3.60;;;;;;;2.86;83.02;95817.27;1789513;79;21519;-70
2021/10/21 02:50:17;;;;;;;3.60;2.50;;;;;;;2.90;83.54;95812.97;1807849;79;21019;-71
2021/10/21 02:52:44;;;;;;;10.93;4.23;;;;;;;2.89;83.39;95816.00;1809399;78;21484;-71
2021/10/21 02:55:10;;;;;;;5.43;2.93;;;;;;;2.96;83.36;95807.86;1795720;79;21034;-71
2021/10/21 02:57:37;;;;;;;5.33;3.30;;;;;;;3.02;83.04;95810.54;1780786;79;21600;-70
2021/10/21 03:00:07;;;;;;;5.67;2.93;;;;;;;3.01;82.82;95808.80;1785443;79;21033;-71
2021/10/21 03:02:34;;;;;;;5.60;3.20;;;;;;;2.99;82.74;95797.47;1788358;79;21591;-71
2021/10/21 03:05:01;;;;;;;4.03;2.70;;;;;;;2.83;82.56;95812.02;1783646;79;21006;-70
2021/10/21 03:07:27;;;;;;;6.40;3.03;;;;;;;2.85;82.77;95802.91;1803588;79;21030;-69
2021/10/21 03:09:54;;;;;;;5.73;3.67;;;;;;;2.81;82.74;95802.00;1789842;79;21097;-71
2021/10/21 03:12:20;;;;;;;8.30;4.00;;;;;;;2.85;83.37;95794.69;1803724;79;21047;-71
2021/10/21 03:14:47;;;;;;;6.60;3.07;;;;;;;2.91;83.30;95803.88;1800173;79;20991;-71
2021/10/21 03:17:14;;;;;;;6.20;3.00;;;;;;;2.81;82.30;95787.66;1794693;79;21086;-72
2021/10/21 03:19:41;;;;;;;11.53;5.77;;;;;;;2.72;82.53;95792.73;1795990;79;21061;-71
2021/10/21 03:22:08;;;;;;;6.80;4.47;;;;;;;2.77;83.18;95781.95;1801483;79;21484;-71
2021/10/21 03:24:34;;;;;;;8.53;4.00;;;;;;;2.65;83.36;95783.09;1794649;79;21023;-71
2021/10/21 03:27:01;;;;;;;9.30;4.30;;;;;;;2.59;83.62;95787.77;1790262;79;21094;-71
2021/10/21 03:29:28;;;;;;;5.40;2.57;;;;;;;2.57;83.16;95786.46;1802815;79;21014;-72
2021/10/21 03:31:54;;;;;;;3.83;2.07;;;;;;;2.55;83.11;95771.23;1802906;79;21060;-71
2021/10/21 03:34:21;;;;;;;4.37;2.60;;;;;;;2.55;83.57;95776.87;1805213;79;21080;-71
2021/10/21 03:36:48;;;;;;;3.70;2.43;;;;;;;2.54;83.21;95776.41;1798503;79;21042;-71
2021/10/21 03:39:15;;;;;;;3.57;2.20;;;;;;;2.54;83.39;95773.36;1789215;79;21051;-68
2021/10/21 03:41:41;;;;;;;67.13;28.03;;;;;;;2.54;83.89;95775.09;1803476;79;21078;-68
2021/10/21 03:44:08;;;;;;;48.80;21.77;;;;;;;2.51;83.40;95778.53;1795968;79;21034;-67
2021/10/21 03:46:36;;;;;;;21.90;9.57;;;;;;;2.49;83.86;95768.52;1788091;79;21137;-69
2021/10/21 03:49:03;;;;;;;62.63;32.37;;;;;;;2.47;83.85;95770.64;1792960;79;21014;-68
2021/10/21 03:51:29;;;;;;;33.63;15.00;;;;;;;2.45;83.45;95762.83;1783302;79;21090;-68
2021/10/21 03:53:56;;;;;;;52.67;26.83;;;;;;;2.43;83.38;95767.12;1801587;79;21058;-68
2021/10/21 03:56:22;;;;;;;49.43;25.33;;;;;;;2.44;83.81;95754.98;1805726;79;20990;-68
2021/10/21 03:58:49;;;;;;;40.17;19.17;;;;;;;2.42;83.69;95751.47;1788151;79;21038;-68
2021/10/21 04:01:15;;;;;;;5.50;3.47;;;;;;;2.47;83.69;95755.02;1794822;79;21106;-69
2021/10/21 04:03:42;;;;;;;9.80;5.93;;;;;;;2.51;83.71;95752.48;1809095;79;21126;-70
2021/10/21 04:06:08;;;;;;;14.90;7.43;;;;;;;2.60;84.13;95732.23;1783518;79;21148;-70
2021/10/21 04:08:34;;;;;;;36.30;14.83;;;;;;;2.47;84.08;95760.23;1800682;79;21101;-69
2021/10/21 04:11:01;;;;;;;25.43;10.87;;;;;;;2.43;83.92;95758.45;1777839;79;21120;-70
2021/10/21 04:13:27;;;;;;;14.43;7.10;;;;;;;2.46;83.80;95738.52;1804030;79;21551;-69
2021/10/21 04:15:54;;;;;;;17.47;10.60;;;;;;;2.46;84.02;95745.47;1797295;79;21010;-69
2021/10/21 04:18:20;;;;;;;21.80;10.50;;;;;;;2.40;83.34;95752.77;1777863;79;21628;-68
2021/10/21 04:20:48;;;;;;;27.87;14.20;;;;;;;2.42;83.04;95744.95;1806178;79;21064;-68
2021/10/21 04:23:15;;;;;;;28.17;13.97;;;;;;;2.35;83.58;95747.48;1807029;79;21622;-68
2021/10/21 04:25:42;;;;;;;23.00;12.83;;;;;;;2.42;83.90;95747.56;1799235;79;21468;-68
2021/10/21 04:28:08;;;;;;;46.27;25.40;;;;;;;2.39;82.58;95744.48;1777696;79;21009;-68
2021/10/21 04:30:35;;;;;;;12.50;7.03;;;;;;;2.27;82.16;95736.08;1796842;79;21071;-68
2021/10/21 04:33:02;;;;;;;8.93;5.03;;;;;;;2.31;83.01;95727.88;1790947;79;21006;-68
2021/10/21 04:35:28;;;;;;;21.80;12.13;;;;;;;2.30;83.56;95727.44;1804011;79;21057;-69
2021/10/21 04:37:55;;;;;;;12.40;6.47;;;;;;;2.23;83.71;95729.50;1794108;79;21560;-69
2021/10/21 04:40:21;;;;;;;7.67;4.10;;;;;;;2.27;83.89;95723.46;1793517;79;20979;-69
2021/10/21 04:42:48;;;;;;;22.70;14.00;;;;;;;2.23;83.83;95727.76;1799835;79;21046;-69
2021/10/21 04:45:15;;;;;;;22.67;14.27;;;;;;;2.20;84.08;95729.02;1787518;79;21019;-69
2021/10/21 04:47:42;;;;;;;17.53;9.67;;;;;;;2.23;83.98;95730.36;1803890;79;21445;-69
2021/10/21 04:50:09;;;;;;;20.83;13.63;;;;;;;2.19;84.08;95732.45;1795482;79;21504;-68
2021/10/21 04:52:37;;;;;;;17.53;8.30;;;;;;;2.18;83.87;95722.91;1807811;79;21011;-68
2021/10/21 04:55:08;;;;;;;7.33;3.67;;;;;;;2.14;83.53;95722.00;1800994;79;21109;-70
2021/10/21 04:57:35;;;;;;;8.20;5.77;;;;;;;2.15;83.87;95727.64;1808723;79;21050;-72
2021/10/21 05:00:05;;;;;;;44.80;24.90;;;;;;;2.13;84.39;95731.08;1809162;79;21146;-70
2021/10/21 05:02:31;;;;;;;48.60;27.27;;;;;;;2.12;84.00;95727.59;1797974;79;21551;-71
2021/10/21 05:04:58;;;;;;;31.67;15.73;;;;;;;2.10;84.06;95721.48;1800276;79;21567;-76
2021/10/21 05:07:24;;;;;;;87.93;46.10;;;;;;;2.14;84.43;95723.70;1801121;79;21010;-71
2021/10/21 05:09:51;;;;;;;65.83;33.53;;;;;;;2.15;83.96;95719.83;1777549;79;21057;-84
2021/10/21 05:12:18;;;;;;;56.33;28.03;;;;;;;2.25;84.11;95705.23;1795213;79;21547;-69
2021/10/21 05:14:44;;;;;;;43.97;24.13;;;;;;;2.32;84.10;95713.59;1793533;79;20998;-75
2021/10/21 05:17:10;;;;;;;49.10;26.07;;;;;;;2.23;83.12;95712.57;1791766;79;21026;-70
2021/10/21 05:19:37;;;;;;;47.63;23.67;;;;;;;2.16;82.77;95716.36;1777730;79;20974;-73
2021/10/21 05:22:04;;;;;;;13.50;7.90;;;;;;;2.22;83.47;95716.91;1806474;79;21589;-70
2021/10/21 05:24:31;;;;;;;36.70;21.37;;;;;;;2.27;83.48;95721.77;1800341;79;21069;-73
2021/10/21 05:26:57;;;;;;;50.80;29.23;;;;;;;2.22;83.91;95718.21;1783897;79;20994;-69
2021/10/21 05:29:24;;;;;;;45.90;26.17;;;;;;;2.27;83.86;95718.26;1783107;79;21049;-70
2021/10/21 05:31:50;;;;;;;18.20;11.83;;;;;;;2.29;83.66;95710.05;1808420;79;21188;-66
2021/10/21 05:34:17;;;;;;;24.23;13.33;;;;;;;2.37;84.26;95708.45;1802703;79;21601;-75
2021/10/21 05:36:43;;;;;;;46.77;28.67;;;;;;;2.49;84.60;95701.23;1793912;79;21133;-69
2021/10/21 05:39:10;;;;;;;44.27;29.13;;;;;;;2.57;84.33;95705.71;1792606;79;21709;-73
2021/10/21 05:41:37;;;;;;;37.57;23.77;;;;;;;2.57;83.49;95704.41;1807653;79;21130;-78
2021/10/21 05:44:04;;;;;;;35.67;21.13;;;;;;;2.62;83.73;95700.57;1808982;79;21077;-73
2021/10/21 05:46:31;;;;;;;14.83;8.40;;;;;;;2.69;83.62;95696.30;1786131;79;21018;-72
2021/10/21 05:48:58;;;;;;;11.53;6.20;;;;;;;2.77;83.57;95695.96;1796092;79;21083;-72
2021/10/21 05:51:24;;;;;;;30.77;17.90;;;;;;;2.78;83.99;95692.52;1808094;79;21018;-68
2021/10/21 05:53:53;;;;;;;18.47;10.50;;;;;;;2.84;83.85;95687.81;1804418;79;21097;-71
2021/10/21 05:56:20;;;;;;;27.00;16.80;;;;;;;2.76;84.18;95695.09;1799596;79;21101;-71
2021/10/21 05:58:47;;;;;;;31.20;20.70;;;;;;;2.78;84.56;95700.34;1806532;79;21061;-67
2021/10/21 06:01:13;;;;;;;32.27;19.63;;;;;;;2.79;84.35;95695.13;1802925;79;21575;-70
2021/10/21 06:03:40;;;;;;;32.77;20.27;;;;;;;2.76;84.52;95691.62;1802843;79;21007;-73
2021/10/21 06:06:07;;;;;;;36.10;24.10;;;;;;;2.81;84.50;95693.86;1807604;79;21062;-71
2021/10/21 06:08:33;;;;;;;73.73;37.60;;;;;;;2.86;84.50;95702.61;1803512;79;21042;-69
2021/10/21 06:11:03;;;;;;;54.07;30.47;;;;;;;2.91;84.37;95687.91;1788784;79;21010;-74
2021/10/21 06:13:31;;;;;;;56.53;37.13;;;;;;;3.05;84.83;95684.17;1796762;79;21082;-76
2021/10/21 06:15:58;;;;;;;40.27;26.53;;;;;;;3.17;85.54;95684.29;1794172;79;21547;-80
2021/10/21 06:18:24;;;;;;;28.47;20.50;;;;;;;3.33;85.28;95683.19;1787944;79;21106;-77
2021/10/21 06:20:51;;;;;;;30.77;21.90;;;;;;;3.44;85.29;95686.77;1776744;79;21562;-76
2021/10/21 06:23:17;;;;;;;28.47;19.77;;;;;;;3.55;84.96;95679.91;1797060;79;21079;-77
2021/10/21 06:25:44;;;;;;;49.50;35.70;;;;;;;3.64;84.71;95676.09;1803136;79;21058;-75
2021/10/21 06:28:12;;;;;;;35.40;25.27;;;;;;;3.87;84.81;95665.85;1802068;79;21031;-75
2021/10/21 06:30:39;;;;;;;29.00;18.50;;;;;;;4.08;84.58;95673.41;1798854;79;21647;-84
2021/10/21 06:33:08;;;;;;;29.67;20.10;;;;;;;4.30;84.33;95661.39;1802668;79;21097;-71
2021/10/21 06:35:35;;;;;;;26.53;20.30;;;;;;;4.52;84.09;95656.74;1808185;79;21152;-80
2021/10/21 06:38:02;;;;;;;26.77;16.27;;;;;;;4.75;84.05;95648.15;1808852;79;21038;-76
2021/10/21 06:40:28;;;;;;;21.53;12.90;;;;;;;4.99;83.68;95649.57;1810200;79;21070;-72
2021/10/21 06:42:55;;;;;;;29.27;19.37;;;;;;;5.16;83.02;95643.06;1798584;79;21522;-72
2021/10/21 06:45:23;;;;;;;33.83;22.90;;;;;;;5.40;82.95;95637.04;1790279;79;21058;-71
2021/10/21 06:47:50;;;;;;;28.57;18.00;;;;;;;5.67;82.03;95639.69;1793916;79;21034;-72
2021/10/21 06:50:16;;;;;;;26.20;17.13;;;;;;;5.93;82.23;95641.03;1796325;79;21015;-72
2021/10/21 06:52:45;;;;;;;41.37;24.20;;;;;;;6.18;82.09;95634.07;1807776;79;21702;-70
2021/10/21 06:55:13;;;;;;;31.10;22.20;;;;;;;6.36;81.49;95630.11;1802843;79;21049;-74
2021/10/21 06:57:58;;;;;;;26.33;18.20;;;;;;;6.53;81.47;95633.11;1799066;79;21117;-72
2021/10/21 07:00:27;;;;;;;33.57;19.97;;;;;;;6.72;80.79;95622.58;1806764;79;21078;-70
2021/10/21 07:02:57;;;;;;;19.57;12.53;;;;;;;6.91;80.88;95623.40;1805255;79;21055;-71
2021/10/21 07:05:25;;;;;;;32.80;19.80;;;;;;;7.12;80.85;95632.92;1796330;79;21022;-69
2021/10/21 07:07:51;;;;;;;51.80;29.30;;;;;;;7.38;80.66;95630.59;1787979;79;21081;-71
2021/10/21 07:10:21;;;;;;;208.57;89.90;;;;;;;7.62;80.63;95624.33;1795954;79;21062;-71
2021/10/21 07:12:47;;;;;;;53.80;32.70;;;;;;;7.85;79.82;95621.98;1809119;79;21074;-71
2021/10/21 07:15:15;;;;;;;130.07;75.83;;;;;;;8.04;79.46;95610.45;1807677;79;21105;-70
2021/10/21 07:17:42;;;;;;;26.87;19.73;;;;;;;8.18;79.09;95612.50;1806630;79;21105;-70
2021/10/21 07:20:13;;;;;;;12.60;9.30;;;;;;;8.44;79.30;95614.94;1780956;79;21528;-70
2021/10/21 07:22:39;;;;;;;16.57;9.43;;;;;;;8.73;78.39;95614.20;1792630;79;21075;-71
2021/10/21 07:25:06;;;;;;;20.57;13.07;;;;;;;8.94;77.56;95617.02;1792662;79;21038;-71
2021/10/21 07:27:33;;;;;;;38.57;19.47;;;;;;;9.14;77.38;95615.00;1799345;79;21097;-70
2021/10/21 07:30:00;;;;;;;77.53;32.23;;;;;;;9.41;76.37;95606.33;1796614;79;21109;-70
2021/10/21 07:32:26;;;;;;;14.70;9.27;;;;;;;9.65;76.48;95606.41;1807213;79;20991;-74
2021/10/21 07:34:53;;;;;;;8.60;5.23;;;;;;;9.87;76.17;95598.59;1790247;79;21532;-72
2021/10/21 07:37:20;;;;;;;14.63;10.40;;;;;;;10.10;75.69;95592.95;1787292;79;21053;-72
2021/10/21 07:39:48;;;;;;;8.33;5.63;;;;;;;10.29;75.55;95586.96;1786445;79;21136;-69
2021/10/21 07:42:15;;;;;;;11.63;4.70;;;;;;;10.50;75.39;95600.66;1792808;79;21097;-68
2021/10/21 07:44:48;;;;;;;16.93;7.13;;;;;;;10.69;74.38;95592.83;1777641;79;20978;-69
2021/10/21 07:47:16;;;;;;;16.45;5.55;;;;;;;10.87;73.65;95598.66;1786997;79;21104;-70
2021/10/21 07:49:46;;;;;;;15.80;6.40;;;;;;;11.03;72.62;95591.70;1793060;79;21618;-78
2021/10/21 07:52:16;;;;;;;12.77;5.77;;;;;;;11.21;72.76;95589.16;1782809;79;21129;-75
2021/10/21 07:54:41;;;;;;;7.77;4.93;;;;;;;11.40;72.67;95584.78;1792644;79;21042;-71
2021/10/21 07:57:08;;;;;;;12.90;6.30;;;;;;;11.56;71.04;95580.87;1782390;79;21132;-71
2021/10/21 07:59:35;;;;;;;12.90;6.53;;;;;;;11.76;72.64;95566.34;1798788;79;21081;-69
2021/10/21 08:02:03;;;;;;;5.20;3.53;;;;;;;11.94;72.50;95567.25;1757462;79;21079;-70
2021/10/21 08:04:34;;;;;;;82.50;42.13;;;;;;;12.23;70.43;95556.42;1750139;80;21035;-71
2021/10/21 08:07:02;;;;;;;8.63;6.47;;;;;;;12.60;69.12;95560.72;1741749;80;21003;-69
2021/10/21 08:09:30;;;;;;;7.30;6.42;;;;;;;12.97;66.25;95550.84;1755654;80;21024;-69
2021/10/21 08:11:59;;;;;;;3.25;2.90;;;;;;;13.44;60.04;95538.94;1781344;80;21570;-71
2021/10/21 08:14:25;;;;;;;6.03;3.60;;;;;;;13.71;59.98;95553.99;1775029;80;21098;-71
2021/10/21 08:16:53;;;;;;;2.60;2.40;;;;;;;13.89;59.53;95551.20;1781504;80;21022;-70
2021/10/21 08:19:21;;;;;;;5.60;2.87;;;;;;;14.06;57.92;95544.00;1781164;80;21109;-69
2021/10/21 08:21:47;;;;;;;3.83;2.90;;;;;;;14.16;58.65;95552.09;1752260;80;21082;-69
2021/10/21 08:24:18;;;;;;;4.45;3.30;;;;;;;14.29;56.66;95552.09;1765783;80;21508;-73
2021/10/21 08:26:48;;;;;;;4.05;2.33;;;;;;;14.33;57.40;95552.84;1766070;80;21095;-73
2021/10/21 08:29:16;;;;;;;3.33;2.65;;;;;;;14.34;53.69;95555.91;1773392;80;21022;-72
2021/10/21 08:31:43;;;;;;;3.80;3.33;;;;;;;14.44;56.10;95546.72;1777783;79;21082;-71
2021/10/21 08:34:10;;;;;;;3.20;2.67;;;;;;;14.57;56.07;95556.95;1783356;79;21002;-70
2021/10/21 08:36:36;;;;;;;3.17;2.65;;;;;;;14.69;54.75;95545.44;1808632;79;21007;-74
2021/10/21 08:39:06;;;;;;;3.47;2.75;;;;;;;14.77;53.28;95541.17;1783256;79;21069;-67
2021/10/21 08:41:31;;;;;;;3.17;2.62;;;;;;;14.86;52.14;95540.82;1791474;79;21093;-67
2021/10/21 08:43:58;;;;;;;4.80;3.55;;;;;;;14.99;53.66;95541.70;1777591;79;21041;-68
2021/10/21 08:46:27;;;;;;;4.03;3.25;;;;;;;15.02;49.24;95528.30;1791935;79;21058;-76
2021/10/21 08:48:59;;;;;;;81.47;64.55;;;;;;;15.16;53.22;95529.99;1777471;79;21053;-73
2021/10/21 08:51:29;;;;;;;4.15;3.42;;;;;;;15.43;51.16;95526.75;1788121;79;21132;-73
2021/10/21 08:53:56;;;;;;;5.55;4.65;;;;;;;15.67;48.03;95522.25;1799715;79;21069;-73
2021/10/21 08:56:27;;;;;;;8.95;4.50;;;;;;;15.94;51.95;95517.66;1801858;79;21117;-81
2021/10/21 08:59:00;;;;;;;3.67;2.50;;;;;;;16.12;47.39;95522.68;1801293;79;21114;-81
2021/10/21 09:01:41;;;;;;;7.28;4.10;;;;;;;16.14;47.64;95510.66;1809225;79;21085;-71
2021/10/21 09:04:37;;;;;;;4.78;3.50;;;;;;;16.18;47.00;95517.59;1798106;79;21029;-71
2021/10/21 09:09:26;;;;;;;3.90;3.50;;;;;;;16.38;47.87;95512.76;1806203;79;21091;-69
2021/10/21 09:12:07;;;;;;;6.65;3.02;;;;;;;16.55;47.09;95501.36;1807789;79;21103;-69
2021/10/21 09:14:49;;;;;;;4.05;2.42;;;;;;;16.69;46.93;95500.30;1805539;79;21049;-68
2021/10/21 09:17:19;;;;;;;3.55;3.00;;;;;;;16.53;41.63;95509.44;1786239;79;21157;-70
2021/10/21 09:19:46;;;;;;;6.03;2.77;;;;;;;16.47;45.70;95507.48;1777948;79;21033;-70
2021/10/21 09:22:27;;;;;;;4.03;2.10;;;;;;;16.24;44.21;95518.66;1789878;79;21507;-70
2021/10/21 09:24:57;;;;;;;4.60;2.60;;;;;;;15.99;43.61;95505.02;1801973;79;21061;-69
2021/10/21 09:27:25;;;;;;;2.55;1.92;;;;;;;15.89;44.28;95505.00;1805191;79;21018;-70
2021/10/21 09:29:55;;;;;;;3.65;2.72;;;;;;;15.76;43.81;95503.30;1799307;79;20999;-71
2021/10/21 09:32:31;;;;;;;5.10;4.45;;;;;;;15.70;44.88;95504.00;1809200;79;21477;-70
2021/10/21 09:35:03;;;;;;;2.92;2.52;;;;;;;15.62;44.83;95495.44;1793250;79;21592;-70
2021/10/21 09:37:34;;;;;;;2.83;2.37;;;;;;;15.53;43.63;95495.36;1807449;79;21007;-70
2021/10/21 09:40:11;;;;;;;7.78;6.67;;;;;;;15.49;45.77;95494.59;1785421;79;21106;-68
2021/10/21 09:42:43;;;;;;;4.37;2.62;;;;;;;15.47;45.54;95491.16;1781707;79;21499;-67
2021/10/21 09:45:24;;;;;;;3.95;2.60;;;;;;;15.44;46.66;95487.73;1777345;79;21512;-70
2021/10/21 09:47:55;;;;;;;3.25;2.62;;;;;;;15.42;46.20;95493.56;1789182;79;21081;-70
2021/10/21 09:50:36;;;;;;;3.37;2.40;;;;;;;15.38;46.50;95479.54;1808992;79;21527;-73
2021/10/21 09:53:13;;;;;;;4.65;3.22;;;;;;;15.36;47.32;95468.95;1788585;79;21520;-72
2021/10/21 09:55:42;;;;;;;4.37;2.50;;;;;;;15.35;47.17;95470.36;1795798;79;21093;-72
2021/10/21 09:58:11;;;;;;;4.28;3.02;;;;;;;15.33;47.59;95469.08;1787425;79;21117;-73
2021/10/21 10:00:41;;;;;;;4.20;2.60;;;;;;;15.33;47.39;95463.77;1800858;79;21705;-72
2021/10/21 10:03:19;;;;;;;3.52;3.05;;;;;;;15.33;47.02;95453.13;1803579;79;21070;-72
2021/10/21 10:05:53;;;;;;;4.78;3.02;;;;;;;15.34;47.55;95450.00;1802915;79;21070;-72
2021/10/21 10:08:24;;;;;;;7.55;3.98;;;;;;;15.35;47.84;95449.09;1778036;79;21136;-72
2021/10/21 10:10:54;;;;;;;3.52;2.98;;;;;;;15.34;48.42;95445.55;1805779;79;21058;-71
2021/10/21 10:13:22;;;;;;;6.47;3.05;;;;;;;15.33;48.79;95442.97;1810175;79;21118;-73
2021/10/21 10:15:52;;;;;;;3.40;3.10;;;;;;;15.32;48.13;95448.75;1807962;79;21010;-73
2021/10/21 10:18:25;;;;;;;5.65;3.77;;;;;;;15.32;48.84;95443.44;1794582;79;21086;-73
2021/10/21 10:21:10;;;;;;;9.48;5.58;;;;;;;15.33;48.73;95443.83;1778012;79;21033;-73
2021/10/21 10:23:42;;;;;;;5.25;3.85;;;;;;;15.30;48.89;95442.63;1789280;79;20999;-73
2021/10/21 10:26:08;;;;;;;5.67;3.67;;;;;;;15.30;48.72;95438.64;1713557;82;21062;-72
2021/10/21 10:28:54;;;;;;;6.25;4.35;;;;;;;15.30;48.46;95441.30;1803387;79;21580;-73
2021/10/21 10:31:49;;;;;;;5.10;3.40;;;;;;;15.30;48.52;95439.11;1777615;79;20975;-73
2021/10/21 10:34:40;;;;;;;4.12;2.67;;;;;;;15.30;48.27;95429.80;1802035;79;21050;-73
2021/10/21 10:37:21;;;;;;;4.00;2.80;;;;;;;15.28;46.14;95411.72;1800157;79;21006;-72
2021/10/21 10:40:00;;;;;;;3.60;2.75;;;;;;;15.27;47.27;95413.95;1799727;79;21504;-72
2021/10/21 10:42:41;;;;;;;5.87;3.60;;;;;;;15.27;47.27;95413.95;1802957;79;21019;-72
2021/10/21 10:45:10;;;;;;;4.65;3.60;;;;;;;15.34;47.73;95408.80;1798184;79;21596;-71
2021/10/21 10:47:49;;;;;;;2.75;2.10;;;;;;;15.40;45.23;95412.56;1805815;79;21098;-73
2021/10/21 10:50:29;;;;;;;3.02;2.00;;;;;;;16.00;40.24;95396.34;1784183;79;21023;-70
2021/10/21 10:53:01;;;;;;;2.58;1.90;;;;;;;16.00;40.24;95396.34;1792327;79;21054;-72
2021/10/21 10:55:39;;;;;;;4.83;2.80;;;;;;;16.48;37.67;95386.27;1807825;79;21058;-70
2021/10/21 10:58:29;;;;;;;5.85;3.33;;;;;;;16.82;39.88;95372.75;1794417;79;21480;-73
2021/10/21 11:00:58;;;;;;;8.80;2.33;;;;;;;17.10;39.84;95360.31;1779766;79;21042;-71
2021/10/21 11:03:45;;;;;;;4.03;2.37;;;;;;;17.44;35.84;95365.36;1807888;79;21010;-71
2021/10/21 11:06:19;;;;;;;4.45;2.40;;;;;;;18.15;39.42;95354.66;1784489;79;21583;-71
2021/10/21 11:09:03;;;;;;;3.95;2.30;;;;;;;18.99;33.76;95350.63;1787367;79;21058;-71
2021/10/21 11:11:48;;;;;;;2.95;2.20;;;;;;;19.45;34.60;95347.56;1801963;79;21169;-71
2021/10/21 11:14:37;;;;;;;2.33;2.10;;;;;;;19.83;34.02;95347.17;1784456;79;20995;-71
2021/10/21 11:17:04;;;;;;;2.83;2.37;;;;;;;19.69;29.61;95347.11;1808296;79;20979;-71
2021/10/21 11:19:45;;;;;;;3.35;2.22;;;;;;;19.53;30.17;95344.45;1794125;79;21097;-70
2021/10/21 11:22:26;;;;;;;3.10;2.55;;;;;;;19.24;30.24;95346.09;1796469;79;21059;-70
2021/10/21 11:25:00;;;;;;;5.47;2.42;;;;;;;19.39;32.19;95332.33;1793477;79;21011;-68
2021/10/21 11:27:34;;;;;;;3.77;2.47;;;;;;;19.49;32.13;95326.83;1793369;79;21090;-70
2021/10/21 11:30:11;;;;;;;3.52;2.77;;;;;;;20.03;30.88;95325.02;1809250;79;21074;-71
2021/10/21 11:32:40;;;;;;;2.40;2.08;;;;;;;20.67;30.77;95321.59;1791912;79;21118;-71
2021/10/21 11:35:15;;;;;;;5.20;2.60;;;;;;;20.72;28.20;95324.84;1794039;79;21098;-71
2021/10/21 11:37:48;;;;;;;3.42;2.60;;;;;;;20.61;29.00;95330.00;1782205;79;21057;-71
2021/10/21 11:40:29;;;;;;;2.87;2.33;;;;;;;20.53;29.11;95325.09;1789328;79;21018;-71
2021/10/21 11:43:00;;;;;;;2.62;2.00;;;;;;;20.89;29.11;95331.80;1797937;79;21141;-71
2021/10/21 11:45:31;;;;;;;2.98;2.10;;;;;;;21.24;26.98;95325.52;1795205;79;21002;-71